Time,TemperatureF,DewpointF,PressureIn,WindDirection,WindDirectionDegrees,WindSpeedMPH,WindSpeedGustMPH,Humidity,HourlyPrecipIn,Conditions,Clouds,dailyrainin,SolarRadiationWatts/m^2,SoftwareType,DateUTC
2013-08-07 00:02:00,60.0,37.0,-100.00,NW,314,12.0,16.0,43,0.00,,,0.00,0.000000,,2013-08-07 06:02:00,
2013-08-07 00:32:00,58.0,37.0,-100.00,North,3,5.0,15.0,45,0.00,,,0.00,0.000000,,2013-08-07 06:32:00,
2013-08-07 00:43:00,58.0,37.0,-100.00,North,3,5.0,15.0,45,0.00,,,0.00,0.000000,,2013-08-07 06:43:00,
2013-08-07 00:52:00,58.0,37.0,-100.00,North,3,5.0,15.0,45,0.00,,,0.00,0.000000,,2013-08-07 06:52:00,
2013-08-07 01:01:00,58.0,37.0,-100.00,North,3,5.0,15.0,45,0.00,,,0.00,0.000000,,2013-08-07 07:01:00,
2013-08-07 01:33:00,58.0,36.0,-100.00,North,357,5.0,9.0,44,0.00,,,0.00,0.000000,,2013-08-07 07:33:00,
2013-08-07 01:43:00,58.0,36.0,-100.00,North,357,5.0,9.0,44,0.00,,,0.00,0.000000,,2013-08-07 07:43:00,
2013-08-07 01:52:00,58.0,36.0,-100.00,North,357,5.0,9.0,44,0.00,,,0.00,0.000000,,2013-08-07 07:52:00,
2013-08-07 02:01:00,58.0,36.0,-100.00,North,357,5.0,9.0,44,0.00,,,0.00,0.000000,,2013-08-07 08:01:00,
2013-08-07 02:32:00,58.0,36.0,-100.00,NNW,346,4.0,8.0,44,0.00,,,0.00,0.000000,,2013-08-07 08:32:00,
2013-08-07 02:44:00,58.0,36.0,-100.00,NNW,346,4.0,8.0,44,0.00,,,0.00,0.000000,,2013-08-07 08:44:00,
2013-08-07 02:52:00,58.0,36.0,-100.00,NNW,346,4.0,8.0,44,0.00,,,0.00,0.000000,,2013-08-07 08:52:00,
2013-08-07 03:01:00,58.0,36.0,-100.00,NNW,346,4.0,8.0,44,0.00,,,0.00,0.000000,,2013-08-07 09:01:00,
2013-08-07 03:43:00,58.0,36.0,-100.00,West,263,6.0,9.0,43,0.00,,,0.00,0.000000,,2013-08-07 09:43:00,
2013-08-07 03:54:00,58.0,36.0,-100.00,West,263,6.0,9.0,43,0.00,,,0.00,0.000000,,2013-08-07 09:54:00,
2013-08-07 04:01:00,58.0,36.0,-100.00,West,263,6.0,9.0,43,0.00,,,0.00,0.000000,,2013-08-07 10:01:00,
2013-08-07 04:32:00,57.0,34.0,-100.00,West,265,5.0,8.0,42,0.00,,,0.00,0.000000,,2013-08-07 10:32:00,
2013-08-07 04:43:00,57.0,34.0,-100.00,West,265,5.0,8.0,42,0.00,,,0.00,0.000000,,2013-08-07 10:43:00,
2013-08-07 04:52:00,57.0,34.0,-100.00,West,265,5.0,8.0,42,0.00,,,0.00,0.000000,,2013-08-07 10:52:00,
2013-08-07 05:01:00,57.0,34.0,-100.00,West,265,5.0,8.0,42,0.00,,,0.00,0.000000,,2013-08-07 11:01:00,
2013-08-07 05:32:00,57.0,33.0,-100.00,West,261,4.0,5.0,40,0.00,,,0.00,0.000000,,2013-08-07 11:32:00,
2013-08-07 05:43:00,57.0,33.0,-100.00,West,261,4.0,5.0,40,0.00,,,0.00,0.000000,,2013-08-07 11:43:00,
2013-08-07 05:52:00,57.0,33.0,-100.00,West,261,4.0,5.0,40,0.00,,,0.00,0.000000,,2013-08-07 11:52:00,
2013-08-07 06:02:00,57.0,33.0,-100.00,West,261,4.0,5.0,40,0.00,,,0.00,0.000000,,2013-08-07 12:02:00,
2013-08-07 06:33:00,56.0,32.0,-100.00,South,187,3.0,5.0,40,0.00,,,0.00,0.000000,,2013-08-07 12:33:00,
2013-08-07 06:43:00,56.0,32.0,-100.00,South,187,3.0,5.0,40,0.00,,,0.00,0.000000,,2013-08-07 12:43:00,
2013-08-07 06:52:00,56.0,32.0,-100.00,South,187,3.0,5.0,40,0.00,,,0.00,0.000000,,2013-08-07 12:52:00,
2013-08-07 07:02:00,56.0,32.0,-100.00,South,187,3.0,5.0,40,0.00,,,0.00,0.000000,,2013-08-07 13:02:00,
2013-08-07 07:44:00,59.0,35.0,-100.00,West,273,2.0,5.0,40,0.00,,,0.00,17.000000,,2013-08-07 13:44:00,
2013-08-07 07:53:00,59.0,35.0,-100.00,West,273,2.0,5.0,40,0.00,,,0.00,17.000000,,2013-08-07 13:53:00,
2013-08-07 08:43:00,62.0,36.0,-100.00,SSE,163,0.0,2.0,38,-99.99,,,0.00,170.000000,,2013-08-07 14:43:00,
2013-08-07 08:52:00,62.0,36.0,-100.00,SSE,163,0.0,2.0,38,-99.99,,,0.00,170.000000,,2013-08-07 14:52:00,
2013-08-07 09:02:00,62.0,36.0,-100.00,SSE,163,0.0,2.0,38,-99.99,,,0.00,170.000000,,2013-08-07 15:02:00,
2013-08-07 09:33:00,64.0,39.0,-100.00,SSE,151,2.0,4.0,39,0.00,,,0.00,390.000000,,2013-08-07 15:33:00,
2013-08-07 09:43:00,64.0,39.0,-100.00,SSE,151,2.0,4.0,39,0.00,,,0.00,390.000000,,2013-08-07 15:43:00,
2013-08-07 09:53:00,64.0,39.0,-100.00,SSE,151,2.0,4.0,39,0.00,,,0.00,390.000000,,2013-08-07 15:53:00,
2013-08-07 10:02:00,64.0,39.0,-100.00,SSE,151,2.0,4.0,39,0.00,,,0.00,390.000000,,2013-08-07 16:02:00,
2013-08-07 10:33:00,67.0,37.0,-100.00,ENE,61,3.0,7.0,33,0.00,,,0.00,612.000000,,2013-08-07 16:33:00,
2013-08-07 10:43:00,67.0,37.0,-100.00,ENE,61,3.0,7.0,33,0.00,,,0.00,612.000000,,2013-08-07 16:43:00,
2013-08-07 10:53:00,67.0,37.0,-100.00,ENE,61,3.0,7.0,33,0.00,,,0.00,612.000000,,2013-08-07 16:53:00,
2013-08-07 11:01:00,67.0,37.0,-100.00,ENE,61,3.0,7.0,33,0.00,,,0.00,612.000000,,2013-08-07 17:01:00,
2013-08-07 11:33:00,68.0,37.0,-100.00,SW,217,5.0,11.0,32,0.00,,,0.00,809.000000,,2013-08-07 17:33:00,
2013-08-07 11:43:00,68.0,37.0,-100.00,SW,217,5.0,11.0,32,0.00,,,0.00,809.000000,,2013-08-07 17:43:00,
2013-08-07 11:52:00,68.0,37.0,-100.00,SW,217,5.0,11.0,32,0.00,,,0.00,809.000000,,2013-08-07 17:52:00,
2013-08-07 12:02:00,68.0,37.0,-100.00,SW,217,5.0,11.0,32,0.00,,,0.00,809.000000,,2013-08-07 18:02:00,
2013-08-07 12:32:00,70.0,36.0,-100.00,WSW,254,6.0,10.0,29,0.00,,,0.00,1005.000000,,2013-08-07 18:32:00,
2013-08-07 12:43:00,70.0,36.0,-100.00,WSW,254,6.0,10.0,29,0.00,,,0.00,1005.000000,,2013-08-07 18:43:00,
2013-08-07 12:52:00,70.0,36.0,-100.00,WSW,254,6.0,10.0,29,0.00,,,0.00,1005.000000,,2013-08-07 18:52:00,
2013-08-07 13:01:00,70.0,36.0,-100.00,WSW,254,6.0,10.0,29,0.00,,,0.00,1005.000000,,2013-08-07 19:01:00,
2013-08-07 13:44:00,71.0,33.0,-100.00,West,280,6.0,14.0,25,0.00,,,0.00,1143.000000,,2013-08-07 19:44:00,
2013-08-07 13:52:00,71.0,33.0,-100.00,West,280,6.0,14.0,25,0.00,,,0.00,1143.000000,,2013-08-07 19:52:00,
2013-08-07 14:02:00,71.0,33.0,-100.00,West,280,6.0,14.0,25,0.00,,,0.00,1143.000000,,2013-08-07 20:02:00,
2013-08-07 14:43:00,73.0,33.0,-100.00,WNW,290,7.0,15.0,23,0.00,,,0.00,1085.000000,,2013-08-07 20:43:00,
2013-08-07 14:52:00,73.0,33.0,-100.00,WNW,290,7.0,15.0,23,0.00,,,0.00,1085.000000,,2013-08-07 20:52:00,
2013-08-07 15:01:00,73.0,33.0,-100.00,WNW,290,7.0,15.0,23,0.00,,,0.00,1085.000000,,2013-08-07 21:01:00,
2013-08-07 15:43:00,74.0,30.0,-100.00,WNW,291,12.0,22.0,20,0.00,,,0.00,1049.000000,,2013-08-07 21:43:00,
2013-08-07 15:52:00,74.0,30.0,-100.00,WNW,291,12.0,22.0,20,0.00,,,0.00,1049.000000,,2013-08-07 21:52:00,
2013-08-07 16:01:00,74.0,30.0,-100.00,WNW,291,12.0,22.0,20,0.00,,,0.00,1049.000000,,2013-08-07 22:01:00,
2013-08-07 16:32:00,74.0,26.0,-100.00,WNW,284,11.0,26.0,17,0.00,,,0.00,968.000000,,2013-08-07 22:32:00,
2013-08-07 16:43:00,74.0,26.0,-100.00,WNW,284,11.0,26.0,17,0.00,,,0.00,968.000000,,2013-08-07 22:43:00,
2013-08-07 16:52:00,74.0,26.0,-100.00,WNW,284,11.0,26.0,17,0.00,,,0.00,968.000000,,2013-08-07 22:52:00,
2013-08-07 17:01:00,74.0,26.0,-100.00,WNW,284,11.0,26.0,17,0.00,,,0.00,968.000000,,2013-08-07 23:01:00,
2013-08-07 17:43:00,76.0,25.0,-100.00,WNW,285,9.0,22.0,15,0.00,,,0.00,832.000000,,2013-08-07 23:43:00,
2013-08-07 17:52:00,76.0,25.0,-100.00,WNW,285,9.0,22.0,15,0.00,,,0.00,832.000000,,2013-08-07 23:52:00,
2013-08-07 18:01:00,76.0,25.0,-100.00,WNW,285,9.0,22.0,15,0.00,,,0.00,832.000000,,2013-08-08 00:01:00,
2013-08-07 18:43:00,74.0,22.0,-100.00,West,260,12.0,20.0,14,0.00,,,0.00,572.000000,,2013-08-08 00:43:00,
2013-08-07 18:52:00,74.0,22.0,-100.00,West,260,12.0,20.0,14,0.00,,,0.00,572.000000,,2013-08-08 00:52:00,
2013-08-07 19:02:00,74.0,22.0,-100.00,West,260,12.0,20.0,14,0.00,,,0.00,572.000000,,2013-08-08 01:02:00,
2013-08-07 19:32:00,74.0,20.0,-100.00,West,264,8.0,20.0,13,0.00,,,0.00,34.000000,,2013-08-08 01:32:00,
2013-08-07 19:43:00,74.0,20.0,-100.00,West,264,8.0,20.0,13,0.00,,,0.00,34.000000,,2013-08-08 01:43:00,
2013-08-07 19:52:00,74.0,20.0,-100.00,West,264,8.0,20.0,13,0.00,,,0.00,34.000000,,2013-08-08 01:52:00,
2013-08-07 20:02:00,74.0,20.0,-100.00,West,264,8.0,20.0,13,0.00,,,0.00,34.000000,,2013-08-08 02:02:00,
2013-08-07 20:32:00,70.0,22.0,-100.00,WNW,289,9.0,16.0,16,0.00,,,0.00,79.000000,,2013-08-08 02:32:00,
2013-08-07 20:43:00,70.0,22.0,-100.00,WNW,289,9.0,16.0,16,0.00,,,0.00,79.000000,,2013-08-08 02:43:00,
2013-08-07 20:52:00,70.0,22.0,-100.00,WNW,289,9.0,16.0,16,0.00,,,0.00,79.000000,,2013-08-08 02:52:00,
2013-08-07 21:01:00,70.0,22.0,-100.00,WNW,289,9.0,16.0,16,0.00,,,0.00,79.000000,,2013-08-08 03:01:00,
2013-08-07 21:32:00,64.0,30.0,-100.00,NW,311,12.0,16.0,28,0.00,,,0.00,48.000000,,2013-08-08 03:32:00,
2013-08-07 21:43:00,64.0,30.0,-100.00,NW,311,12.0,16.0,28,0.00,,,0.00,48.000000,,2013-08-08 03:43:00,
2013-08-07 21:52:00,64.0,30.0,-100.00,NW,311,12.0,16.0,28,0.00,,,0.00,48.000000,,2013-08-08 03:52:00,
2013-08-07 22:01:00,64.0,30.0,-100.00,NW,311,12.0,16.0,28,0.00,,,0.00,48.000000,,2013-08-08 04:01:00,
2013-08-07 22:33:00,62.0,31.0,-100.00,NW,307,11.0,14.0,31,0.00,,,0.00,0.000000,,2013-08-08 04:33:00,
2013-08-07 22:44:00,62.0,31.0,-100.00,NW,307,11.0,14.0,31,0.00,,,0.00,0.000000,,2013-08-08 04:44:00,
2013-08-07 22:53:00,62.0,31.0,-100.00,NW,307,11.0,14.0,31,0.00,,,0.00,0.000000,,2013-08-08 04:53:00,
2013-08-07 23:01:00,62.0,31.0,-100.00,NW,307,11.0,14.0,31,0.00,,,0.00,0.000000,,2013-08-08 05:01:00,
2013-08-07 23:33:00,60.0,31.0,-100.00,WNW,300,10.0,13.0,33,0.00,,,0.00,0.000000,,2013-08-08 05:33:00,
2013-08-07 23:43:00,60.0,31.0,-100.00,WNW,300,10.0,13.0,33,0.00,,,0.00,0.000000,,2013-08-08 05:43:00,
2013-08-07 23:52:00,60.0,31.0,-100.00,WNW,300,10.0,13.0,33,0.00,,,0.00,0.000000,,2013-08-08 05:52:00,